Kenai Municipal Airport Kenai US
ICAO: PAEN
IATA:
Category: Medium
Scheduled Services:

Elevation: 99 ft
TransAlt. 18000 ft.

Airport Communications:
ATIS:120.3
ANCHORAGE CNTR:125.7
CTAF:121.3
RDO:122.65
GND:121.9
TWEB:117.6
TWR:121.3

PAEN Zoom In..

If Map Doesn't Load, Click Here

Runways:

(A) RW 01L length 7830 ft width 150 ft
---- / hdg 12

(B) RW 01R length 2000 ft width 60 ft
---- / hdg 12

(C) RW 19L length 2000 ft width 60 ft
---- / hdg 192

(D) RW 19R length 7830 ft width 150 ft
ILS 108.90 / hdg 192

Location; PAEN
Day. 23 / Time. 20.53 Zulu
* Altimeter: 29.81
* Temperature: 12° c. 53.6°f.
* Wind from: 190° Speed 24 kn with Gusts up to 28 kn.
Dewpoint: 07° c.
Visibility: 10 Statute Miles.
Clouds: Clear (automated report).

PAEN 232053Z 19024G28KT 10SM CLR 12/07 A2981 RMK AO2 PK WND 19031/2024 SLP096 T01220067 53013


Wind From 190°
Speed 24 kn.

 
 
jpsmedia.com for Web Design worldairports.se 2018   terms of use